sensor_id;sensor_type;location;lat;lon;timestamp;temperature;humidity
52725;DHT22;38621;52.830;6.914;2022-12-19T00:02:07;0.60;99.90
52725;DHT22;38621;52.830;6.914;2022-12-19T00:04:33;0.60;99.90
52725;DHT22;38621;52.830;6.914;2022-12-19T00:06:59;0.60;99.90
52725;DHT22;38621;52.830;6.914;2022-12-19T00:09:25;0.60;99.90
52725;DHT22;38621;52.830;6.914;2022-12-19T00:11:51;0.60;99.90
52725;DHT22;38621;52.830;6.914;2022-12-19T00:14:17;0.60;99.90
52725;DHT22;38621;52.830;6.914;2022-12-19T00:16:42;0.60;99.90
52725;DHT22;38621;52.830;6.914;2022-12-19T00:19:09;0.60;99.90
52725;DHT22;38621;52.830;6.914;2022-12-19T00:21:36;0.60;99.90
52725;DHT22;38621;52.830;6.914;2022-12-19T00:24:03;0.60;99.90
52725;DHT22;38621;52.830;6.914;2022-12-19T00:26:32;0.60;99.90
52725;DHT22;38621;52.830;6.914;2022-12-19T00:29:00;0.80;99.90
52725;DHT22;38621;52.830;6.914;2022-12-19T00:31:29;0.60;99.90
52725;DHT22;38621;52.830;6.914;2022-12-19T00:33:55;0.60;99.90
52725;DHT22;38621;52.830;6.914;2022-12-19T00:36:23;0.60;99.90
52725;DHT22;38621;52.830;6.914;2022-12-19T00:38:50;0.70;99.90
52725;DHT22;38621;52.830;6.914;2022-12-19T00:41:25;0.60;99.90
52725;DHT22;38621;52.830;6.914;2022-12-19T00:43:58;0.70;99.90
52725;DHT22;38621;52.830;6.914;2022-12-19T00:46:25;0.70;99.90
52725;DHT22;38621;52.830;6.914;2022-12-19T00:48:51;0.70;99.90
52725;DHT22;38621;52.830;6.914;2022-12-19T00:51:20;0.70;99.90
52725;DHT22;38621;52.830;6.914;2022-12-19T00:53:47;0.70;99.90
52725;DHT22;38621;52.830;6.914;2022-12-19T00:56:16;0.70;99.90
52725;DHT22;38621;52.830;6.914;2022-12-19T00:58:42;0.80;99.90
52725;DHT22;38621;52.830;6.914;2022-12-19T01:01:22;0.70;99.90
52725;DHT22;38621;52.830;6.914;2022-12-19T01:03:49;0.80;99.90
52725;DHT22;38621;52.830;6.914;2022-12-19T01:06:15;0.80;99.90
52725;DHT22;38621;52.830;6.914;2022-12-19T01:08:41;0.80;99.90
52725;DHT22;38621;52.830;6.914;2022-12-19T01:11:07;0.80;99.90
52725;DHT22;38621;52.830;6.914;2022-12-19T01:13:34;0.90;99.90
52725;DHT22;38621;52.830;6.914;2022-12-19T01:16:05;0.90;99.90
52725;DHT22;38621;52.830;6.914;2022-12-19T01:18:32;0.90;99.90
52725;DHT22;38621;52.830;6.914;2022-12-19T01:21:00;0.90;99.90
52725;DHT22;38621;52.830;6.914;2022-12-19T01:23:26;0.90;99.90
52725;DHT22;38621;52.830;6.914;2022-12-19T01:25:53;0.90;99.90
52725;DHT22;38621;52.830;6.914;2022-12-19T01:28:19;0.90;99.90
52725;DHT22;38621;52.830;6.914;2022-12-19T01:30:45;1.00;99.90
52725;DHT22;38621;52.830;6.914;2022-12-19T01:33:12;1.00;99.90
52725;DHT22;38621;52.830;6.914;2022-12-19T01:35:39;1.00;99.90
52725;DHT22;38621;52.830;6.914;2022-12-19T01:38:05;1.00;99.90
52725;DHT22;38621;52.830;6.914;2022-12-19T01:40:32;2.10;99.90
52725;DHT22;38621;52.830;6.914;2022-12-19T01:42:58;1.00;99.90
52725;DHT22;38621;52.830;6.914;2022-12-19T01:50:36;1.00;99.90
52725;DHT22;38621;52.830;6.914;2022-12-19T01:53:04;1.10;99.90
52725;DHT22;38621;52.830;6.914;2022-12-19T01:55:30;1.10;99.90
52725;DHT22;38621;52.830;6.914;2022-12-19T01:57:56;1.20;99.90
52725;DHT22;38621;52.830;6.914;2022-12-19T02:00:22;1.20;99.90
52725;DHT22;38621;52.830;6.914;2022-12-19T02:03:07;1.10;99.90
52725;DHT22;38621;52.830;6.914;2022-12-19T02:05:34;1.20;99.90
52725;DHT22;38621;52.830;6.914;2022-12-19T02:08:00;1.10;99.90
52725;DHT22;38621;52.830;6.914;2022-12-19T02:10:27;1.20;99.90
52725;DHT22;38621;52.830;6.914;2022-12-19T02:12:54;1.20;99.90
52725;DHT22;38621;52.830;6.914;2022-12-19T02:15:20;1.20;99.90
52725;DHT22;38621;52.830;6.914;2022-12-19T02:26:59;1.30;99.90
52725;DHT22;38621;52.830;6.914;2022-12-19T02:32:32;1.30;99.90
52725;DHT22;38621;52.830;6.914;2022-12-19T02:37:34;1.30;99.90
52725;DHT22;38621;52.830;6.914;2022-12-19T02:40:12;1.30;99.90
52725;DHT22;38621;52.830;6.914;2022-12-19T02:42:43;1.30;99.90
52725;DHT22;38621;52.830;6.914;2022-12-19T02:45:13;1.30;99.90
52725;DHT22;38621;52.830;6.914;2022-12-19T02:47:40;1.30;99.90
52725;DHT22;38621;52.830;6.914;2022-12-19T02:50:07;1.30;99.90
52725;DHT22;38621;52.830;6.914;2022-12-19T02:55:08;1.30;99.90
52725;DHT22;38621;52.830;6.914;2022-12-19T03:00:10;1.30;99.90
52725;DHT22;38621;52.830;6.914;2022-12-19T03:11:04;1.30;99.90
52725;DHT22;38621;52.830;6.914;2022-12-19T03:14:08;1.30;99.90
52725;DHT22;38621;52.830;6.914;2022-12-19T03:16:27;1.30;99.90
52725;DHT22;38621;52.830;6.914;2022-12-19T03:18:53;1.30;99.90
52725;DHT22;38621;52.830;6.914;2022-12-19T03:21:24;1.30;99.90
52725;DHT22;38621;52.830;6.914;2022-12-19T03:23:53;1.30;99.90
52725;DHT22;38621;52.830;6.914;2022-12-19T03:26:27;1.40;99.90
52725;DHT22;38621;52.830;6.914;2022-12-19T03:29:18;1.40;99.90
52725;DHT22;38621;52.830;6.914;2022-12-19T03:31:46;1.40;99.90
52725;DHT22;38621;52.830;6.914;2022-12-19T03:34:26;1.40;99.90
52725;DHT22;38621;52.830;6.914;2022-12-19T03:36:55;1.80;99.90
52725;DHT22;38621;52.830;6.914;2022-12-19T03:39:22;1.40;99.90
52725;DHT22;38621;52.830;6.914;2022-12-19T03:41:50;1.50;99.90
52725;DHT22;38621;52.830;6.914;2022-12-19T03:44:38;1.50;99.90
52725;DHT22;38621;52.830;6.914;2022-12-19T03:47:22;1.60;99.90
52725;DHT22;38621;52.830;6.914;2022-12-19T03:49:48;1.80;99.90
52725;DHT22;38621;52.830;6.914;2022-12-19T03:55:19;1.70;99.90
52725;DHT22;38621;52.830;6.914;2022-12-19T04:00:27;1.70;99.90
52725;DHT22;38621;52.830;6.914;2022-12-19T04:02:55;1.70;99.90
52725;DHT22;38621;52.830;6.914;2022-12-19T04:05:24;1.90;99.90
52725;DHT22;38621;52.830;6.914;2022-12-19T04:07:53;1.80;99.90
52725;DHT22;38621;52.830;6.914;2022-12-19T04:10:22;1.90;99.90
52725;DHT22;38621;52.830;6.914;2022-12-19T04:13:10;1.90;99.90
52725;DHT22;38621;52.830;6.914;2022-12-19T04:15:51;2.00;99.90
52725;DHT22;38621;52.830;6.914;2022-12-19T04:18:19;1.90;99.90
52725;DHT22;38621;52.830;6.914;2022-12-19T04:20:51;3.10;99.90
52725;DHT22;38621;52.830;6.914;2022-12-19T04:23:28;2.00;99.90
52725;DHT22;38621;52.830;6.914;2022-12-19T04:25:56;2.10;99.90
52725;DHT22;38621;52.830;6.914;2022-12-19T04:28:45;2.10;99.90
52725;DHT22;38621;52.830;6.914;2022-12-19T04:31:13;2.00;99.90
52725;DHT22;38621;52.830;6.914;2022-12-19T04:33:39;2.20;99.90
52725;DHT22;38621;52.830;6.914;2022-12-19T04:36:05;2.10;99.90
52725;DHT22;38621;52.830;6.914;2022-12-19T04:38:31;2.10;99.90
52725;DHT22;38621;52.830;6.914;2022-12-19T04:40:57;2.10;99.90
52725;DHT22;38621;52.830;6.914;2022-12-19T04:43:22;2.20;99.90
52725;DHT22;38621;52.830;6.914;2022-12-19T04:45:48;2.40;99.90
52725;DHT22;38621;52.830;6.914;2022-12-19T04:48:14;2.20;99.90
52725;DHT22;38621;52.830;6.914;2022-12-19T04:50:39;2.20;99.90
52725;DHT22;38621;52.830;6.914;2022-12-19T04:53:05;2.20;99.90
52725;DHT22;38621;52.830;6.914;2022-12-19T04:55:31;2.30;99.90
52725;DHT22;38621;52.830;6.914;2022-12-19T04:57:57;2.30;99.90
52725;DHT22;38621;52.830;6.914;2022-12-19T05:00:23;2.30;99.90
52725;DHT22;38621;52.830;6.914;2022-12-19T05:02:48;2.40;99.90
52725;DHT22;38621;52.830;6.914;2022-12-19T05:05:14;2.40;99.90
52725;DHT22;38621;52.830;6.914;2022-12-19T05:07:41;2.50;99.90
52725;DHT22;38621;52.830;6.914;2022-12-19T05:10:07;2.50;99.90
52725;DHT22;38621;52.830;6.914;2022-12-19T05:12:32;2.50;99.90
52725;DHT22;38621;52.830;6.914;2022-12-19T05:14:58;2.50;99.90
52725;DHT22;38621;52.830;6.914;2022-12-19T05:17:24;2.50;99.90
52725;DHT22;38621;52.830;6.914;2022-12-19T05:19:49;2.60;99.90
52725;DHT22;38621;52.830;6.914;2022-12-19T05:22:15;2.60;99.90
52725;DHT22;38621;52.830;6.914;2022-12-19T05:24:41;2.70;99.90
52725;DHT22;38621;52.830;6.914;2022-12-19T05:27:06;3.00;99.90
52725;DHT22;38621;52.830;6.914;2022-12-19T05:29:32;2.80;99.90
52725;DHT22;38621;52.830;6.914;2022-12-19T05:31:59;2.80;99.90
52725;DHT22;38621;52.830;6.914;2022-12-19T05:34:24;2.80;99.90
52725;DHT22;38621;52.830;6.914;2022-12-19T05:36:50;2.90;99.90
52725;DHT22;38621;52.830;6.914;2022-12-19T05:39:16;3.40;99.90
52725;DHT22;38621;52.830;6.914;2022-12-19T05:41:42;2.90;99.90
52725;DHT22;38621;52.830;6.914;2022-12-19T05:44:15;2.90;99.90
52725;DHT22;38621;52.830;6.914;2022-12-19T05:46:41;2.90;99.90
52725;DHT22;38621;52.830;6.914;2022-12-19T05:49:07;3.00;99.90
52725;DHT22;38621;52.830;6.914;2022-12-19T05:51:33;3.00;99.90
52725;DHT22;38621;52.830;6.914;2022-12-19T05:54:01;3.10;99.90
52725;DHT22;38621;52.830;6.914;2022-12-19T05:56:27;3.20;99.90
52725;DHT22;38621;52.830;6.914;2022-12-19T05:58:53;3.20;99.90
52725;DHT22;38621;52.830;6.914;2022-12-19T06:01:21;3.30;99.90
52725;DHT22;38621;52.830;6.914;2022-12-19T06:03:48;3.40;99.90
52725;DHT22;38621;52.830;6.914;2022-12-19T06:06:19;3.50;99.90
52725;DHT22;38621;52.830;6.914;2022-12-19T06:08:45;3.50;99.90
52725;DHT22;38621;52.830;6.914;2022-12-19T06:11:12;3.60;99.90
52725;DHT22;38621;52.830;6.914;2022-12-19T06:13:39;3.60;99.90
52725;DHT22;38621;52.830;6.914;2022-12-19T06:16:13;3.70;99.90
52725;DHT22;38621;52.830;6.914;2022-12-19T06:18:40;3.60;99.90
52725;DHT22;38621;52.830;6.914;2022-12-19T06:21:09;3.60;99.90
52725;DHT22;38621;52.830;6.914;2022-12-19T06:23:36;3.60;99.90
52725;DHT22;38621;52.830;6.914;2022-12-19T06:26:03;3.60;99.90
52725;DHT22;38621;52.830;6.914;2022-12-19T06:28:30;3.70;99.90
52725;DHT22;38621;52.830;6.914;2022-12-19T06:30:57;3.80;99.90
52725;DHT22;38621;52.830;6.914;2022-12-19T06:33:23;3.90;99.90
52725;DHT22;38621;52.830;6.914;2022-12-19T06:36:06;3.90;99.90
52725;DHT22;38621;52.830;6.914;2022-12-19T06:38:33;4.00;99.90
52725;DHT22;38621;52.830;6.914;2022-12-19T06:40:59;4.00;99.90
52725;DHT22;38621;52.830;6.914;2022-12-19T06:43:44;4.10;99.90
52725;DHT22;38621;52.830;6.914;2022-12-19T06:46:10;4.10;99.90
52725;DHT22;38621;52.830;6.914;2022-12-19T06:48:35;4.20;99.90
52725;DHT22;38621;52.830;6.914;2022-12-19T06:51:01;4.20;99.90
52725;DHT22;38621;52.830;6.914;2022-12-19T06:53:27;4.30;99.90
52725;DHT22;38621;52.830;6.914;2022-12-19T06:55:55;4.30;99.90
52725;DHT22;38621;52.830;6.914;2022-12-19T06:58:22;4.40;99.90
52725;DHT22;38621;52.830;6.914;2022-12-19T07:00:48;4.30;99.90
52725;DHT22;38621;52.830;6.914;2022-12-19T07:03:17;4.50;99.90
52725;DHT22;38621;52.830;6.914;2022-12-19T07:05:43;4.40;99.90
52725;DHT22;38621;52.830;6.914;2022-12-19T07:08:09;4.40;99.90
52725;DHT22;38621;52.830;6.914;2022-12-19T07:10:35;4.50;99.90
52725;DHT22;38621;52.830;6.914;2022-12-19T07:13:01;4.50;99.90
52725;DHT22;38621;52.830;6.914;2022-12-19T07:15:27;4.50;99.90
52725;DHT22;38621;52.830;6.914;2022-12-19T07:17:55;4.50;99.90
52725;DHT22;38621;52.830;6.914;2022-12-19T07:20:21;4.60;99.90
52725;DHT22;38621;52.830;6.914;2022-12-19T07:22:47;4.50;99.90
52725;DHT22;38621;52.830;6.914;2022-12-19T07:25:13;4.60;99.90
52725;DHT22;38621;52.830;6.914;2022-12-19T07:27:39;4.50;99.90
52725;DHT22;38621;52.830;6.914;2022-12-19T07:30:05;4.60;99.90
52725;DHT22;38621;52.830;6.914;2022-12-19T07:32:32;4.50;99.90
52725;DHT22;38621;52.830;6.914;2022-12-19T07:34:58;4.50;99.90
52725;DHT22;38621;52.830;6.914;2022-12-19T07:37:24;4.50;99.90
52725;DHT22;38621;52.830;6.914;2022-12-19T07:39:49;4.60;99.90
52725;DHT22;38621;52.830;6.914;2022-12-19T07:42:17;4.60;99.90
52725;DHT22;38621;52.830;6.914;2022-12-19T07:44:43;4.70;99.90
52725;DHT22;38621;52.830;6.914;2022-12-19T07:47:09;4.70;99.90
52725;DHT22;38621;52.830;6.914;2022-12-19T07:49:35;4.70;99.90
52725;DHT22;38621;52.830;6.914;2022-12-19T07:52:00;4.80;99.90
52725;DHT22;38621;52.830;6.914;2022-12-19T07:54:26;4.70;99.90
52725;DHT22;38621;52.830;6.914;2022-12-19T07:56:52;4.80;99.90
52725;DHT22;38621;52.830;6.914;2022-12-19T07:59:17;4.80;99.90
52725;DHT22;38621;52.830;6.914;2022-12-19T08:01:43;4.70;99.90
52725;DHT22;38621;52.830;6.914;2022-12-19T08:04:09;4.80;99.90
52725;DHT22;38621;52.830;6.914;2022-12-19T08:06:34;4.80;99.90
52725;DHT22;38621;52.830;6.914;2022-12-19T08:09:00;4.90;99.90
52725;DHT22;38621;52.830;6.914;2022-12-19T08:11:26;4.90;99.90
52725;DHT22;38621;52.830;6.914;2022-12-19T08:13:54;4.90;99.90
52725;DHT22;38621;52.830;6.914;2022-12-19T08:16:21;4.90;99.90
52725;DHT22;38621;52.830;6.914;2022-12-19T08:18:47;5.00;99.90
52725;DHT22;38621;52.830;6.914;2022-12-19T08:21:13;5.00;99.90
52725;DHT22;38621;52.830;6.914;2022-12-19T08:23:39;5.00;99.90
52725;DHT22;38621;52.830;6.914;2022-12-19T08:26:07;5.20;99.90
52725;DHT22;38621;52.830;6.914;2022-12-19T08:28:35;5.10;99.90
52725;DHT22;38621;52.830;6.914;2022-12-19T08:31:20;5.20;99.90
52725;DHT22;38621;52.830;6.914;2022-12-19T08:33:46;5.20;99.90
52725;DHT22;38621;52.830;6.914;2022-12-19T08:36:13;5.20;99.90
52725;DHT22;38621;52.830;6.914;2022-12-19T08:38:39;5.20;99.90
52725;DHT22;38621;52.830;6.914;2022-12-19T08:41:06;5.30;99.90
52725;DHT22;38621;52.830;6.914;2022-12-19T08:43:32;5.40;99.90
52725;DHT22;38621;52.830;6.914;2022-12-19T08:45:58;5.30;99.90
52725;DHT22;38621;52.830;6.914;2022-12-19T08:48:24;5.30;99.90
52725;DHT22;38621;52.830;6.914;2022-12-19T08:50:50;5.40;99.90
52725;DHT22;38621;52.830;6.914;2022-12-19T08:53:16;5.40;99.90
52725;DHT22;38621;52.830;6.914;2022-12-19T08:55:42;5.50;99.90
52725;DHT22;38621;52.830;6.914;2022-12-19T08:58:08;5.50;99.90
52725;DHT22;38621;52.830;6.914;2022-12-19T09:00:33;5.50;99.90
52725;DHT22;38621;52.830;6.914;2022-12-19T09:02:59;5.50;99.90
52725;DHT22;38621;52.830;6.914;2022-12-19T09:05:24;5.60;99.90
52725;DHT22;38621;52.830;6.914;2022-12-19T09:07:50;5.60;99.90
52725;DHT22;38621;52.830;6.914;2022-12-19T09:10:16;5.60;99.90
52725;DHT22;38621;52.830;6.914;2022-12-19T09:12:41;5.70;99.90
52725;DHT22;38621;52.830;6.914;2022-12-19T09:15:07;5.70;99.90
52725;DHT22;38621;52.830;6.914;2022-12-19T09:17:33;5.70;99.90
52725;DHT22;38621;52.830;6.914;2022-12-19T09:19:59;5.70;99.90
52725;DHT22;38621;52.830;6.914;2022-12-19T09:22:24;5.80;99.90
52725;DHT22;38621;52.830;6.914;2022-12-19T09:24:50;5.80;99.90
52725;DHT22;38621;52.830;6.914;2022-12-19T09:27:16;5.90;99.90
52725;DHT22;38621;52.830;6.914;2022-12-19T09:29:41;5.90;99.90
52725;DHT22;38621;52.830;6.914;2022-12-19T09:32:08;6.00;99.90
52725;DHT22;38621;52.830;6.914;2022-12-19T09:34:33;6.00;99.90
52725;DHT22;38621;52.830;6.914;2022-12-19T09:37:01;6.00;99.90
52725;DHT22;38621;52.830;6.914;2022-12-19T09:39:26;6.10;99.90
52725;DHT22;38621;52.830;6.914;2022-12-19T09:47:29;6.20;99.90
52725;DHT22;38621;52.830;6.914;2022-12-19T09:49:56;6.20;99.90
52725;DHT22;38621;52.830;6.914;2022-12-19T09:52:34;6.30;99.90
52725;DHT22;38621;52.830;6.914;2022-12-19T10:00:22;6.30;99.90
52725;DHT22;38621;52.830;6.914;2022-12-19T10:02:58;6.30;99.90
52725;DHT22;38621;52.830;6.914;2022-12-19T10:05:45;6.30;99.90
52725;DHT22;38621;52.830;6.914;2022-12-19T10:08:18;6.30;99.90
52725;DHT22;38621;52.830;6.914;2022-12-19T10:13:39;6.40;99.90
52725;DHT22;38621;52.830;6.914;2022-12-19T10:16:10;6.40;99.90
52725;DHT22;38621;52.830;6.914;2022-12-19T10:21:45;6.40;99.90
52725;DHT22;38621;52.830;6.914;2022-12-19T10:24:36;6.50;99.90
52725;DHT22;38621;52.830;6.914;2022-12-19T10:35:14;6.60;99.90
52725;DHT22;38621;52.830;6.914;2022-12-19T10:40:43;6.60;99.90
52725;DHT22;38621;52.830;6.914;2022-12-19T10:45:53;6.70;99.90
52725;DHT22;38621;52.830;6.914;2022-12-19T10:48:22;6.80;99.90
52725;DHT22;38621;52.830;6.914;2022-12-19T10:50:48;6.80;99.90
52725;DHT22;38621;52.830;6.914;2022-12-19T10:53:14;6.80;99.90
52725;DHT22;38621;52.830;6.914;2022-12-19T10:55:49;6.70;99.90
52725;DHT22;38621;52.830;6.914;2022-12-19T10:58:36;6.90;99.90
52725;DHT22;38621;52.830;6.914;2022-12-19T11:01:11;6.80;99.90
52725;DHT22;38621;52.830;6.914;2022-12-19T11:03:40;6.80;99.90
52725;DHT22;38621;52.830;6.914;2022-12-19T11:11:49;6.90;99.90
52725;DHT22;38621;52.830;6.914;2022-12-19T11:14:26;6.90;99.90
52725;DHT22;38621;52.830;6.914;2022-12-19T11:16:52;7.00;99.90
52725;DHT22;38621;52.830;6.914;2022-12-19T11:19:36;6.90;99.90
52725;DHT22;38621;52.830;6.914;2022-12-19T11:22:05;7.00;99.90
52725;DHT22;38621;52.830;6.914;2022-12-19T11:24:39;7.00;99.90
52725;DHT22;38621;52.830;6.914;2022-12-19T11:27:29;7.00;99.90
52725;DHT22;38621;52.830;6.914;2022-12-19T11:29:57;7.00;99.90
52725;DHT22;38621;52.830;6.914;2022-12-19T11:35:02;7.10;99.90
52725;DHT22;38621;52.830;6.914;2022-12-19T11:37:46;7.10;99.90
52725;DHT22;38621;52.830;6.914;2022-12-19T11:43:38;7.10;99.90
52725;DHT22;38621;52.830;6.914;2022-12-19T11:46:30;7.10;99.90
52725;DHT22;38621;52.830;6.914;2022-12-19T11:49:25;7.10;99.90
52725;DHT22;38621;52.830;6.914;2022-12-19T11:52:12;7.10;99.90
52725;DHT22;38621;52.830;6.914;2022-12-19T11:55:03;7.10;99.90
52725;DHT22;38621;52.830;6.914;2022-12-19T11:57:29;7.20;99.90
52725;DHT22;38621;52.830;6.914;2022-12-19T11:59:56;7.10;99.90
52725;DHT22;38621;52.830;6.914;2022-12-19T12:08:20;7.10;99.90
52725;DHT22;38621;52.830;6.914;2022-12-19T12:10:56;7.20;99.90
52725;DHT22;38621;52.830;6.914;2022-12-19T12:16:12;7.30;99.90
52725;DHT22;38621;52.830;6.914;2022-12-19T12:18:55;7.30;99.90
52725;DHT22;38621;52.830;6.914;2022-12-19T12:21:59;7.30;99.90
52725;DHT22;38621;52.830;6.914;2022-12-19T12:29:52;7.40;99.90
52725;DHT22;38621;52.830;6.914;2022-12-19T12:35:37;7.50;99.90
52725;DHT22;38621;52.830;6.914;2022-12-19T12:41:20;7.60;99.90
52725;DHT22;38621;52.830;6.914;2022-12-19T12:44:10;7.60;99.90
52725;DHT22;38621;52.830;6.914;2022-12-19T12:46:43;7.60;99.90
52725;DHT22;38621;52.830;6.914;2022-12-19T12:49:55;7.60;99.90
52725;DHT22;38621;52.830;6.914;2022-12-19T12:52:05;7.60;99.90
52725;DHT22;38621;52.830;6.914;2022-12-19T12:54:35;7.60;99.90
52725;DHT22;38621;52.830;6.914;2022-12-19T12:57:02;7.70;99.90
52725;DHT22;38621;52.830;6.914;2022-12-19T12:59:28;7.70;99.90
52725;DHT22;38621;52.830;6.914;2022-12-19T13:02:05;7.70;99.90
52725;DHT22;38621;52.830;6.914;2022-12-19T13:04:41;7.70;99.90
52725;DHT22;38621;52.830;6.914;2022-12-19T13:07:34;7.70;99.90
52725;DHT22;38621;52.830;6.914;2022-12-19T13:10:06;7.70;99.90
52725;DHT22;38621;52.830;6.914;2022-12-19T13:12:32;7.70;99.90
52725;DHT22;38621;52.830;6.914;2022-12-19T13:15:44;7.70;99.90
52725;DHT22;38621;52.830;6.914;2022-12-19T13:18:34;7.80;99.90
52725;DHT22;38621;52.830;6.914;2022-12-19T13:21:04;7.80;99.90
52725;DHT22;38621;52.830;6.914;2022-12-19T13:23:43;7.80;99.90
52725;DHT22;38621;52.830;6.914;2022-12-19T13:26:21;7.90;99.90
52725;DHT22;38621;52.830;6.914;2022-12-19T13:28:47;7.90;99.90
52725;DHT22;38621;52.830;6.914;2022-12-19T13:31:14;7.90;99.90
52725;DHT22;38621;52.830;6.914;2022-12-19T13:39:23;8.00;99.90
52725;DHT22;38621;52.830;6.914;2022-12-19T13:42:16;8.00;99.90
52725;DHT22;38621;52.830;6.914;2022-12-19T13:45:06;8.00;99.90
52725;DHT22;38621;52.830;6.914;2022-12-19T13:47:37;8.00;99.90
52725;DHT22;38621;52.830;6.914;2022-12-19T13:50:25;8.00;99.90
52725;DHT22;38621;52.830;6.914;2022-12-19T13:52:53;8.00;99.90
52725;DHT22;38621;52.830;6.914;2022-12-19T13:55:19;8.00;99.90
52725;DHT22;38621;52.830;6.914;2022-12-19T13:57:51;8.10;99.90
52725;DHT22;38621;52.830;6.914;2022-12-19T14:00:38;8.10;99.90
52725;DHT22;38621;52.830;6.914;2022-12-19T14:03:15;8.00;99.90
52725;DHT22;38621;52.830;6.914;2022-12-19T14:05:42;8.10;99.90
52725;DHT22;38621;52.830;6.914;2022-12-19T14:08:08;8.10;99.90
52725;DHT22;38621;52.830;6.914;2022-12-19T14:10:43;8.10;99.90
52725;DHT22;38621;52.830;6.914;2022-12-19T14:13:16;8.10;99.90
52725;DHT22;38621;52.830;6.914;2022-12-19T14:16:01;8.20;99.90
52725;DHT22;38621;52.830;6.914;2022-12-19T14:18:29;8.20;99.90
52725;DHT22;38621;52.830;6.914;2022-12-19T14:21:19;8.20;99.90
52725;DHT22;38621;52.830;6.914;2022-12-19T14:23:46;8.20;99.90
52725;DHT22;38621;52.830;6.914;2022-12-19T14:26:30;8.20;99.90
52725;DHT22;38621;52.830;6.914;2022-12-19T14:29:03;8.20;99.90
52725;DHT22;38621;52.830;6.914;2022-12-19T14:31:31;8.20;99.90
52725;DHT22;38621;52.830;6.914;2022-12-19T14:33:57;8.20;99.90
52725;DHT22;38621;52.830;6.914;2022-12-19T14:36:31;8.30;99.90
52725;DHT22;38621;52.830;6.914;2022-12-19T14:38:58;8.30;99.90
52725;DHT22;38621;52.830;6.914;2022-12-19T14:44:15;8.40;99.90
52725;DHT22;38621;52.830;6.914;2022-12-19T14:46:42;8.30;99.90
52725;DHT22;38621;52.830;6.914;2022-12-19T14:49:25;8.30;99.90
52725;DHT22;38621;52.830;6.914;2022-12-19T14:51:51;8.30;99.90
52725;DHT22;38621;52.830;6.914;2022-12-19T14:54:20;8.30;99.90
52725;DHT22;38621;52.830;6.914;2022-12-19T14:56:58;8.30;99.90
52725;DHT22;38621;52.830;6.914;2022-12-19T15:04:46;8.20;99.90
52725;DHT22;38621;52.830;6.914;2022-12-19T15:07:25;8.30;99.90
52725;DHT22;38621;52.830;6.914;2022-12-19T15:10:07;8.10;99.90
52725;DHT22;38621;52.830;6.914;2022-12-19T15:15:43;8.10;99.90
52725;DHT22;38621;52.830;6.914;2022-12-19T15:21:00;8.10;99.90
52725;DHT22;38621;52.830;6.914;2022-12-19T15:23:27;8.10;99.90
52725;DHT22;38621;52.830;6.914;2022-12-19T15:25:54;8.10;99.90
52725;DHT22;38621;52.830;6.914;2022-12-19T15:28:23;8.10;99.90
52725;DHT22;38621;52.830;6.914;2022-12-19T15:31:02;8.10;99.90
52725;DHT22;38621;52.830;6.914;2022-12-19T15:33:29;8.10;99.90
52725;DHT22;38621;52.830;6.914;2022-12-19T15:35:55;8.10;99.90
52725;DHT22;38621;52.830;6.914;2022-12-19T15:38:21;8.00;99.90
52725;DHT22;38621;52.830;6.914;2022-12-19T15:40:47;8.10;99.90
52725;DHT22;38621;52.830;6.914;2022-12-19T15:43:20;8.10;99.90
52725;DHT22;38621;52.830;6.914;2022-12-19T15:45:51;8.10;99.90
52725;DHT22;38621;52.830;6.914;2022-12-19T15:48:18;8.20;99.90
52725;DHT22;38621;52.830;6.914;2022-12-19T15:50:44;8.20;99.90
52725;DHT22;38621;52.830;6.914;2022-12-19T15:53:28;8.20;99.90
52725;DHT22;38621;52.830;6.914;2022-12-19T15:55:56;8.20;99.90
52725;DHT22;38621;52.830;6.914;2022-12-19T15:58:26;8.20;99.90
52725;DHT22;38621;52.830;6.914;2022-12-19T16:00:57;8.20;99.90
52725;DHT22;38621;52.830;6.914;2022-12-19T16:03:23;8.30;99.90
52725;DHT22;38621;52.830;6.914;2022-12-19T16:05:50;8.30;99.90
52725;DHT22;38621;52.830;6.914;2022-12-19T16:08:19;8.30;99.90
52725;DHT22;38621;52.830;6.914;2022-12-19T16:10:53;8.30;99.90
52725;DHT22;38621;52.830;6.914;2022-12-19T16:13:24;8.30;99.90
52725;DHT22;38621;52.830;6.914;2022-12-19T16:15:51;8.30;99.90
52725;DHT22;38621;52.830;6.914;2022-12-19T16:18:18;8.20;99.90
52725;DHT22;38621;52.830;6.914;2022-12-19T16:20:45;8.20;99.90
52725;DHT22;38621;52.830;6.914;2022-12-19T16:23:13;8.30;99.90
52725;DHT22;38621;52.830;6.914;2022-12-19T16:25:48;8.40;99.90
52725;DHT22;38621;52.830;6.914;2022-12-19T16:28:31;8.40;99.90
52725;DHT22;38621;52.830;6.914;2022-12-19T16:31:11;8.50;99.90
52725;DHT22;38621;52.830;6.914;2022-12-19T16:33:37;8.50;99.90
52725;DHT22;38621;52.830;6.914;2022-12-19T16:36:03;8.50;99.90
52725;DHT22;38621;52.830;6.914;2022-12-19T16:38:28;8.60;99.90
52725;DHT22;38621;52.830;6.914;2022-12-19T16:40:55;8.60;99.90
52725;DHT22;38621;52.830;6.914;2022-12-19T16:43:29;8.50;99.90
52725;DHT22;38621;52.830;6.914;2022-12-19T16:45:56;8.40;99.90
52725;DHT22;38621;52.830;6.914;2022-12-19T16:48:25;8.40;99.90
52725;DHT22;38621;52.830;6.914;2022-12-19T16:50:52;8.40;99.90
52725;DHT22;38621;52.830;6.914;2022-12-19T16:53:18;8.40;99.90
52725;DHT22;38621;52.830;6.914;2022-12-19T16:55:46;8.50;99.90
52725;DHT22;38621;52.830;6.914;2022-12-19T16:58:24;8.50;99.90
52725;DHT22;38621;52.830;6.914;2022-12-19T17:00:52;8.50;99.90
52725;DHT22;38621;52.830;6.914;2022-12-19T17:05:56;8.50;99.90
52725;DHT22;38621;52.830;6.914;2022-12-19T17:08:22;8.50;99.90
52725;DHT22;38621;52.830;6.914;2022-12-19T17:10:48;8.50;99.90
52725;DHT22;38621;52.830;6.914;2022-12-19T17:13:15;8.40;99.90
52725;DHT22;38621;52.830;6.914;2022-12-19T17:15:42;8.40;99.90
52725;DHT22;38621;52.830;6.914;2022-12-19T17:18:12;8.40;99.90
52725;DHT22;38621;52.830;6.914;2022-12-19T17:20:41;8.50;99.90
52725;DHT22;38621;52.830;6.914;2022-12-19T17:23:22;8.50;99.90
52725;DHT22;38621;52.830;6.914;2022-12-19T17:25:47;8.50;99.90
52725;DHT22;38621;52.830;6.914;2022-12-19T17:28:14;8.50;99.90
52725;DHT22;38621;52.830;6.914;2022-12-19T17:30:40;8.50;99.90
52725;DHT22;38621;52.830;6.914;2022-12-19T17:33:10;8.50;99.90
52725;DHT22;38621;52.830;6.914;2022-12-19T17:35:37;8.50;99.90
52725;DHT22;38621;52.830;6.914;2022-12-19T17:38:03;8.60;99.90
52725;DHT22;38621;52.830;6.914;2022-12-19T17:40:32;8.60;99.90
52725;DHT22;38621;52.830;6.914;2022-12-19T17:42:58;8.60;99.90
52725;DHT22;38621;52.830;6.914;2022-12-19T17:45:27;8.60;99.90
52725;DHT22;38621;52.830;6.914;2022-12-19T17:47:54;8.60;99.90
52725;DHT22;38621;52.830;6.914;2022-12-19T17:50:22;8.70;99.90
52725;DHT22;38621;52.830;6.914;2022-12-19T17:52:49;8.70;99.90
52725;DHT22;38621;52.830;6.914;2022-12-19T17:55:24;8.70;99.90
52725;DHT22;38621;52.830;6.914;2022-12-19T17:57:50;8.80;99.90
52725;DHT22;38621;52.830;6.914;2022-12-19T18:00:18;8.80;99.90
52725;DHT22;38621;52.830;6.914;2022-12-19T18:02:46;8.80;99.90
52725;DHT22;38621;52.830;6.914;2022-12-19T18:05:25;8.70;99.90
52725;DHT22;38621;52.830;6.914;2022-12-19T18:07:52;8.80;99.90